Time;durP1;ratioP1;P1;durP2;ratioP2;P2;SDS_P1;SDS_P2;PMS_P1;PMS_P2;Temp;Humidity;BMP_temperature;BMP_pressure;BME280_temperature;BME280_humidity;BME280_pressure;Samples;Min_cycle;Max_cycle;Signal;HPM_P1;HPM_P2
2022/04/22 00:00:37;;;;;;;10.43;5.80;;;11.90;99.90;;;;;;5053522;28;20224;-84
2022/04/22 00:03:05;;;;;;;7.85;5.57;;;12.00;99.90;;;;;;5056963;28;20191;-82
2022/04/22 00:05:32;;;;;;;15.85;6.57;;;11.80;99.90;;;;;;5057743;28;20250;-85
2022/04/22 00:07:59;;;;;;;11.38;5.57;;;11.80;99.90;;;;;;5057829;28;20206;-83
2022/04/22 00:10:27;;;;;;;9.57;5.90;;;11.70;99.90;;;;;;5045790;28;20225;-83
2022/04/22 00:12:54;;;;;;;15.85;5.90;;;11.80;99.90;;;;;;5045945;28;20288;-82
2022/04/22 00:15:21;;;;;;;7.25;4.68;;;11.70;99.90;;;;;;5046124;28;20227;-82
2022/04/22 00:17:48;;;;;;;9.52;4.60;;;11.60;99.90;;;;;;5046047;28;20267;-83
2022/04/22 00:20:15;;;;;;;10.98;5.40;;;11.50;99.90;;;;;;5045456;28;20201;-83
2022/04/22 00:22:44;;;;;;;10.55;5.13;;;11.40;99.90;;;;;;5045033;28;20214;-83
2022/04/22 00:25:13;;;;;;;11.52;5.40;;;11.60;99.90;;;;;;5045808;28;20217;-83
2022/04/22 00:27:42;;;;;;;7.70;4.60;;;11.30;99.90;;;;;;5041561;28;20222;-83
2022/04/22 00:30:12;;;;;;;9.45;4.70;;;11.30;99.90;;;;;;5041882;28;20281;-83
2022/04/22 00:32:39;;;;;;;13.00;4.72;;;11.20;99.90;;;;;;5044114;28;20209;-83
2022/04/22 00:35:07;;;;;;;7.60;4.25;;;11.10;99.90;;;;;;5047286;28;20243;-82
2022/04/22 00:37:34;;;;;;;9.32;4.68;;;11.10;99.90;;;;;;5047691;28;20249;-81
2022/04/22 00:40:01;;;;;;;4.95;3.75;;;11.10;99.90;;;;;;5046910;28;20202;-83
2022/04/22 00:42:28;;;;;;;9.25;4.43;;;11.10;99.90;;;;;;5047425;28;20312;-83
2022/04/22 00:44:58;;;;;;;7.32;3.65;;;11.00;99.90;;;;;;5048751;28;20224;-83
2022/04/22 00:47:25;;;;;;;5.50;4.10;;;11.00;99.90;;;;;;5050994;28;20276;-84
2022/04/22 00:49:53;;;;;;;5.85;4.15;;;10.90;99.90;;;;;;5054430;28;20204;-81
2022/04/22 00:52:21;;;;;;;9.55;4.07;;;10.80;99.90;;;;;;5052078;28;20232;-82
2022/04/22 00:54:49;;;;;;;11.35;4.55;;;10.80;99.90;;;;;;5055014;28;20243;-83
2022/04/22 00:57:18;;;;;;;7.90;3.45;;;10.80;99.90;;;;;;5055834;28;20208;-83
2022/04/22 00:59:46;;;;;;;4.63;3.72;;;10.60;99.90;;;;;;5056401;28;20219;-84
2022/04/22 01:02:15;;;;;;;6.78;4.05;;;10.60;99.90;;;;;;5064070;28;20254;-83
2022/04/22 01:10:12;;;;;;;10.63;3.78;;;10.50;99.90;;;;;;5052591;28;20198;-83
2022/04/22 01:12:39;;;;;;;6.63;3.60;;;10.40;99.90;;;;;;5054175;28;20204;-83
2022/04/22 01:15:06;;;;;;;8.38;3.05;;;10.40;99.90;;;;;;5058075;28;20247;-85
2022/04/22 01:17:35;;;;;;;3.95;2.83;;;10.40;99.90;;;;;;5052446;28;20232;-82
2022/04/22 01:20:13;;;;;;;3.30;3.00;;;10.40;99.90;;;;;;5067881;28;20199;-83
2022/04/22 01:22:41;;;;;;;7.03;2.85;;;10.40;99.90;;;;;;5052731;28;20218;-82
2022/04/22 01:25:09;;;;;;;5.38;3.28;;;10.40;99.90;;;;;;5052520;28;20227;-82
2022/04/22 01:27:38;;;;;;;3.92;2.60;;;10.30;99.90;;;;;;5044649;28;20235;-83
2022/04/22 01:30:07;;;;;;;3.83;2.70;;;10.30;99.90;;;;;;5048646;28;20231;-83
2022/04/22 01:32:34;;;;;;;6.28;3.53;;;10.20;99.90;;;;;;5052625;28;20197;-85
2022/04/22 01:35:01;;;;;;;7.45;3.40;;;10.20;99.90;;;;;;5052134;28;20239;-83
2022/04/22 01:37:28;;;;;;;8.05;3.40;;;10.10;99.90;;;;;;5049920;28;20216;-85
2022/04/22 01:39:58;;;;;;;5.13;3.53;;;10.10;99.90;;;;;;5042694;28;20208;-84
2022/04/22 01:42:25;;;;;;;6.05;3.28;;;10.00;99.90;;;;;;5052815;28;20211;-83
2022/04/22 01:44:52;;;;;;;3.35;2.55;;;10.00;99.90;;;;;;5059769;28;20224;-83
2022/04/22 01:47:19;;;;;;;3.13;2.88;;;10.00;99.90;;;;;;5050637;28;20196;-84
2022/04/22 01:49:46;;;;;;;4.57;3.10;;;9.90;99.90;;;;;;5049848;28;20212;-83
2022/04/22 01:52:13;;;;;;;6.03;3.45;;;9.80;99.90;;;;;;5051447;28;20208;-84
2022/04/22 01:54:40;;;;;;;5.72;3.80;;;9.80;99.90;;;;;;5049459;28;20255;-84
2022/04/22 01:57:09;;;;;;;5.60;2.50;;;9.80;99.90;;;;;;5052340;28;20208;-84
2022/04/22 01:59:36;;;;;;;4.85;3.28;;;9.70;99.90;;;;;;5057661;28;20190;-83
2022/04/22 02:02:03;;;;;;;3.65;2.70;;;9.70;99.90;;;;;;5057717;28;20204;-83
2022/04/22 02:04:30;;;;;;;5.00;3.08;;;9.60;99.90;;;;;;5057101;28;20221;-83
2022/04/22 02:06:57;;;;;;;4.93;2.95;;;9.60;99.90;;;;;;5047086;28;20179;-84
2022/04/22 02:09:24;;;;;;;3.47;3.00;;;9.70;99.90;;;;;;5057261;28;20181;-81
2022/04/22 02:11:51;;;;;;;6.40;3.63;;;9.60;99.90;;;;;;5057216;28;20895;-83
2022/04/22 02:14:19;;;;;;;4.25;3.15;;;9.60;99.90;;;;;;5057696;28;20219;-84
2022/04/22 02:16:46;;;;;;;4.68;2.92;;;9.50;99.90;;;;;;5048744;28;20268;-83
2022/04/22 02:19:13;;;;;;;4.07;2.92;;;9.60;99.90;;;;;;5048108;28;20212;-84
2022/04/22 02:21:40;;;;;;;5.05;2.70;;;9.40;99.90;;;;;;5043631;28;20207;-84
2022/04/22 02:24:07;;;;;;;2.47;2.15;;;9.40;99.90;;;;;;5052125;28;20746;-82
2022/04/22 02:28:31;;;;;;;4.07;3.25;;;9.30;99.90;;;;;;5054976;28;20228;-84
2022/04/22 02:29:22;;;;;;;5.43;3.42;;;9.30;99.90;;;;;;5033107;28;20204;-85
2022/04/22 02:31:52;;;;;;;5.72;3.15;;;9.20;99.90;;;;;;5044555;28;20204;-83
2022/04/22 02:34:19;;;;;;;3.42;2.42;;;9.20;99.90;;;;;;5052329;28;20216;-85
2022/04/22 02:36:46;;;;;;;5.00;3.53;;;9.20;99.90;;;;;;5051762;28;20231;-82
2022/04/22 02:39:13;;;;;;;3.90;3.20;;;9.20;99.90;;;;;;5049625;28;20208;-82
2022/04/22 02:47:10;;;;;;;5.28;3.40;;;9.20;99.90;;;;;;5047319;28;20197;-82
2022/04/22 02:49:37;;;;;;;3.88;2.90;;;9.20;99.90;;;;;;5050676;28;20199;-83
2022/04/22 02:52:04;;;;;;;3.22;2.50;;;9.10;99.90;;;;;;5058655;28;20211;-83
2022/04/22 02:54:34;;;;;;;5.72;3.40;;;9.10;99.90;;;;;;5058034;28;20224;-83
2022/04/22 02:57:02;;;;;;;4.82;3.95;;;9.10;99.90;;;;;;5057703;28;20184;-84
2022/04/22 02:59:31;;;;;;;6.03;3.30;;;9.00;99.90;;;;;;5059516;28;20180;-84
2022/04/22 03:01:58;;;;;;;8.00;3.83;;;9.00;99.90;;;;;;5058869;28;20223;-80
2022/04/22 03:04:26;;;;;;;6.10;3.80;;;8.90;99.90;;;;;;5056915;28;20231;-81
2022/04/22 03:06:55;;;;;;;5.95;3.15;;;8.90;99.90;;;;;;5038137;28;20200;-83
2022/04/22 03:09:22;;;;;;;5.05;3.70;;;8.90;99.90;;;;;;5050113;28;20218;-83
2022/04/22 03:11:49;;;;;;;5.38;4.45;;;8.80;99.90;;;;;;5049685;28;20261;-83
2022/04/22 03:14:17;;;;;;;4.05;3.40;;;8.80;99.90;;;;;;5049090;28;20251;-82
2022/04/22 03:16:45;;;;;;;8.25;4.25;;;8.70;99.90;;;;;;5048623;28;20275;-83
2022/04/22 03:19:12;;;;;;;4.82;3.63;;;8.70;99.90;;;;;;5048130;28;20293;-83
2022/04/22 03:21:40;;;;;;;6.30;4.03;;;8.70;99.90;;;;;;5047634;28;20291;-83
2022/04/22 03:24:07;;;;;;;5.28;4.20;;;8.70;99.90;;;;;;5048461;28;20235;-82
2022/04/22 03:26:34;;;;;;;6.00;4.05;;;8.60;99.90;;;;;;5055773;28;20214;-83
2022/04/22 03:29:01;;;;;;;5.75;4.18;;;8.60;99.90;;;;;;5057937;28;20200;-83
2022/04/22 03:31:28;;;;;;;6.30;3.25;;;8.60;99.90;;;;;;5048061;28;20203;-83
2022/04/22 03:33:57;;;;;;;5.18;4.10;;;8.60;99.90;;;;;;5038200;28;20262;-83
2022/04/22 03:36:24;;;;;;;7.60;4.25;;;8.60;99.90;;;;;;5057257;28;20226;-83
2022/04/22 03:38:50;;;;;;;7.10;4.63;;;8.70;99.90;;;;;;5057679;28;20199;-83
2022/04/22 03:41:17;;;;;;;4.88;4.03;;;8.50;99.90;;;;;;5057423;28;20188;-83
2022/04/22 03:43:45;;;;;;;7.22;4.22;;;8.50;99.90;;;;;;5049317;28;20184;-84
2022/04/22 03:46:12;;;;;;;8.70;4.47;;;8.50;99.90;;;;;;5057774;28;20191;-83
2022/04/22 03:48:39;;;;;;;5.25;4.38;;;8.40;99.90;;;;;;5057198;28;20247;-83
2022/04/22 03:51:07;;;;;;;7.10;5.80;;;8.50;99.90;;;;;;5048315;28;20202;-84
2022/04/22 03:53:37;;;;;;;5.47;3.65;;;8.40;99.90;;;;;;5052782;28;20219;-82
2022/04/22 03:58:45;;;;;;;6.20;4.40;;;8.40;99.90;;;;;;5043915;28;20207;-83
2022/04/22 04:01:12;;;;;;;7.15;4.50;;;8.30;99.90;;;;;;5045303;28;20227;-83
2022/04/22 04:03:39;;;;;;;10.43;4.88;;;8.30;99.90;;;;;;5047601;28;20284;-82
2022/04/22 04:06:08;;;;;;;7.18;5.68;;;8.30;99.90;;;;;;5038577;28;20231;-82
2022/04/22 04:08:35;;;;;;;6.45;5.25;;;8.30;99.90;;;;;;5040518;28;20203;-83
2022/04/22 04:16:30;;;;;;;10.75;6.68;;;8.20;99.90;;;;;;5046082;28;20287;-83
2022/04/22 04:23:14;;;;;;;10.25;5.93;;;8.20;99.90;;;;;;5049131;28;20820;-82
2022/04/22 04:24:30;;;;;;;7.15;5.70;;;8.10;99.90;;;;;;5033410;28;20251;-83
2022/04/22 04:26:58;;;;;;;9.80;6.07;;;8.10;99.90;;;;;;5047148;28;20222;-81
2022/04/22 04:29:26;;;;;;;7.97;6.03;;;8.10;99.90;;;;;;5045045;28;20555;-82
2022/04/22 04:31:52;;;;;;;11.02;8.05;;;8.10;99.90;;;;;;5046791;28;20207;-82
2022/04/22 04:34:19;;;;;;;6.68;5.35;;;8.30;99.90;;;;;;5046144;28;20263;-82
2022/04/22 04:36:47;;;;;;;7.30;5.57;;;8.20;99.90;;;;;;5037716;28;20255;-83
2022/04/22 04:39:14;;;;;;;9.75;5.78;;;8.20;99.90;;;;;;5046568;28;20215;-83
2022/04/22 04:41:41;;;;;;;9.63;5.75;;;8.20;99.90;;;;;;5046974;28;20305;-82
2022/04/22 04:44:08;;;;;;;9.43;6.45;;;8.20;99.90;;;;;;5046285;28;20231;-83
2022/04/22 04:46:35;;;;;;;11.45;6.35;;;8.20;99.90;;;;;;5046565;28;20210;-83
2022/04/22 04:49:02;;;;;;;8.15;5.88;;;8.30;99.90;;;;;;5036370;28;20286;-82
2022/04/22 04:51:29;;;;;;;9.63;5.88;;;8.20;99.90;;;;;;5045076;28;20211;-84
2022/04/22 04:53:58;;;;;;;8.63;6.20;;;8.20;99.90;;;;;;5040525;28;20215;-84
2022/04/22 04:56:25;;;;;;;10.85;6.82;;;8.20;99.90;;;;;;5047712;28;20278;-83
2022/04/22 04:58:52;;;;;;;8.10;5.65;;;8.30;99.90;;;;;;5042584;28;20235;-82
2022/04/22 05:01:25;;;;;;;7.75;5.32;;;8.30;99.90;;;;;;5046655;28;20226;-81
2022/04/22 05:03:53;;;;;;;10.73;6.55;;;8.40;99.90;;;;;;5047062;28;20231;-85
2022/04/22 05:06:20;;;;;;;10.90;7.00;;;8.40;99.90;;;;;;5052357;28;20221;-84
2022/04/22 05:08:46;;;;;;;11.10;6.07;;;8.50;99.90;;;;;;5047911;28;20235;-84
2022/04/22 05:11:15;;;;;;;7.63;6.28;;;8.70;99.90;;;;;;5046219;28;20456;-83
2022/04/22 05:13:42;;;;;;;7.70;5.93;;;8.90;99.90;;;;;;5045834;28;20197;-81
2022/04/22 05:16:09;;;;;;;9.98;5.40;;;9.50;99.90;;;;;;5051105;28;20251;-85
2022/04/22 05:18:36;;;;;;;8.05;5.40;;;10.40;99.90;;;;;;5050304;28;20258;-83
2022/04/22 05:21:03;;;;;;;9.40;6.05;;;11.40;99.90;;;;;;5042514;28;20210;-84
2022/04/22 05:23:30;;;;;;;9.85;5.63;;;12.40;99.90;;;;;;5042732;28;20227;-84
2022/04/22 05:26:01;;;;;;;9.57;5.95;;;13.10;99.90;;;;;;5052866;28;20220;-85
2022/04/22 05:28:31;;;;;;;8.98;5.32;;;13.90;99.90;;;;;;5049827;28;20226;-84
2022/04/22 05:33:50;;;;;;;10.52;5.65;;;15.30;97.00;;;;;;5044007;28;20240;-85
2022/04/22 05:36:18;;;;;;;8.20;5.53;;;16.00;95.30;;;;;;5050418;28;20224;-86
2022/04/22 05:38:45;;;;;;;10.15;5.97;;;15.80;94.10;;;;;;5053035;28;20280;-85
2022/04/22 05:41:12;;;;;;;9.23;4.93;;;16.10;93.20;;;;;;5049541;28;20225;-84
2022/04/22 05:43:43;;;;;;;9.13;4.80;;;16.70;92.00;;;;;;5051498;28;20200;-86
2022/04/22 05:46:10;;;;;;;12.32;5.03;;;16.60;92.10;;;;;;5054658;28;20241;-84
2022/04/22 05:48:39;;;;;;;6.05;5.00;;;16.80;91.30;;;;;;5057053;28;20220;-86
2022/04/22 05:51:06;;;;;;;6.13;5.10;;;17.00;90.00;;;;;;5058377;28;20203;-85
2022/04/22 05:53:35;;;;;;;6.87;4.90;;;16.90;90.40;;;;;;5058320;28;20204;-87
2022/04/22 06:14:12;;;;;;;5.87;4.33;;;20.10;78.60;;;;;;1408477;23;20763;-82
2022/04/22 06:16:41;;;;;;;10.87;3.97;;;20.60;76.50;;;;;;5050591;28;20492;-82
2022/04/22 06:19:08;;;;;;;7.90;4.23;;;20.70;75.30;;;;;;5049803;28;20570;-81
2022/04/22 06:21:35;;;;;;;11.00;4.47;;;20.60;75.30;;;;;;5052584;28;20471;-79
2022/04/22 06:24:02;;;;;;;5.73;4.07;;;20.60;74.90;;;;;;5050694;28;20505;-80
2022/04/22 06:26:29;;;;;;;7.50;4.77;;;20.60;75.00;;;;;;5051742;28;20439;-80
2022/04/22 06:28:56;;;;;;;10.17;4.23;;;20.60;74.70;;;;;;5059224;28;20476;-80
2022/04/22 06:31:32;;;;;;;7.87;4.10;;;21.10;74.50;;;;;;5058953;28;20427;-81
2022/04/22 06:33:59;;;;;;;7.30;4.30;;;21.50;72.80;;;;;;5042069;28;20467;-81
2022/04/22 06:36:29;;;;;;;6.27;4.47;;;21.40;72.00;;;;;;5041148;28;20543;-82
2022/04/22 06:38:58;;;;;;;4.70;3.77;;;21.30;72.30;;;;;;5043627;28;20443;-81
2022/04/22 06:47:05;;;;;;;6.20;4.00;;;22.10;70.80;;;;;;5038179;28;20454;-80
2022/04/22 06:49:33;;;;;;;4.93;3.57;;;22.60;69.60;;;;;;5038189;28;20511;-80
2022/04/22 06:52:00;;;;;;;5.83;4.33;;;22.80;68.50;;;;;;5042132;28;20477;-79
2022/04/22 06:54:28;;;;;;;6.77;4.40;;;23.40;67.50;;;;;;5039916;28;20467;-82
2022/04/22 06:56:55;;;;;;;7.23;4.53;;;23.30;67.10;;;;;;5045003;28;20471;-80
2022/04/22 06:59:24;;;;;;;6.83;4.70;;;23.50;66.00;;;;;;5045316;28;20440;-81
2022/04/22 07:01:51;;;;;;;5.10;4.20;;;23.00;65.70;;;;;;5053993;28;20530;-82
2022/04/22 07:04:21;;;;;;;5.83;4.50;;;22.50;67.50;;;;;;5053603;28;20737;-81
2022/04/22 07:06:48;;;;;;;4.50;3.80;;;21.70;67.70;;;;;;5043811;28;20833;-83
2022/04/22 07:09:16;;;;;;;6.60;4.30;;;21.20;69.70;;;;;;5044864;28;20454;-81
2022/04/22 07:11:45;;;;;;;7.70;4.20;;;22.00;70.40;;;;;;5045774;28;20443;-81
2022/04/22 07:14:12;;;;;;;4.93;3.60;;;22.20;70.10;;;;;;5040717;28;20472;-79
2022/04/22 07:16:44;;;;;;;7.63;4.03;;;22.80;68.30;;;;;;5051610;28;20490;-81
2022/04/22 07:19:11;;;;;;;9.30;4.00;;;22.90;68.00;;;;;;5049416;28;20461;-82
2022/04/22 07:21:40;;;;;;;5.03;3.63;;;23.50;67.20;;;;;;5049285;28;20475;-81
2022/04/22 07:24:08;;;;;;;5.57;4.17;;;24.00;65.60;;;;;;5050078;28;20493;-80
2022/04/22 07:26:37;;;;;;;7.00;4.50;;;23.40;65.60;;;;;;5038429;28;20535;-81
2022/04/22 07:29:07;;;;;;;5.83;3.90;;;23.00;64.70;;;;;;5042454;28;20428;-82
2022/04/22 07:31:35;;;;;;;7.07;3.83;;;23.20;65.80;;;;;;5050448;28;20455;-80
2022/04/22 07:34:02;;;;;;;8.17;5.07;;;23.70;65.70;;;;;;5044749;28;20480;-82
2022/04/22 07:36:29;;;;;;;6.73;4.40;;;23.70;64.90;;;;;;5044409;28;20556;-80
2022/04/22 07:38:58;;;;;;;7.90;4.47;;;24.10;64.20;;;;;;5047496;28;20470;-79
2022/04/22 07:41:29;;;;;;;6.90;4.23;;;24.00;64.10;;;;;;5046147;28;20455;-80
2022/04/22 07:46:57;;;;;;;7.20;3.90;;;23.70;63.90;;;;;;5045056;28;20437;-83
2022/04/22 07:49:26;;;;;;;6.97;4.20;;;24.50;63.70;;;;;;5049021;28;20819;-81
2022/04/22 07:51:53;;;;;;;10.03;4.53;;;24.50;63.20;;;;;;5039664;28;20457;-81
2022/04/22 07:54:22;;;;;;;5.10;3.20;;;24.60;62.20;;;;;;5049753;28;20498;-82
2022/04/22 07:56:49;;;;;;;8.57;4.27;;;24.60;62.40;;;;;;5046184;28;20498;-82
2022/04/22 07:59:16;;;;;;;8.93;5.50;;;25.00;61.30;;;;;;5041021;28;20502;-80
2022/04/22 08:01:43;;;;;;;6.27;4.37;;;24.80;62.10;;;;;;5040746;28;20435;-82
2022/04/22 08:04:10;;;;;;;5.57;3.90;;;25.10;61.10;;;;;;5049251;28;20470;-81
2022/04/22 08:06:38;;;;;;;6.00;4.13;;;25.20;59.80;;;;;;5049305;28;20451;-80
2022/04/22 08:09:04;;;;;;;7.60;4.90;;;25.00;60.60;;;;;;5045976;28;20443;-81
2022/04/22 08:11:34;;;;;;;4.57;3.67;;;24.80;60.30;;;;;;5044044;28;20480;-81
2022/04/22 08:14:00;;;;;;;6.20;4.13;;;25.30;60.70;;;;;;5036345;28;20497;-83
2022/04/22 08:16:27;;;;;;;8.90;4.33;;;25.40;60.30;;;;;;5044700;28;20482;-81
2022/04/22 08:18:54;;;;;;;6.10;3.60;;;25.60;59.90;;;;;;5042300;28;20455;-80
2022/04/22 08:21:21;;;;;;;6.80;4.70;;;25.80;60.40;;;;;;5044293;28;20522;-82
2022/04/22 08:23:48;;;;;;;6.77;4.67;;;26.50;59.10;;;;;;5036161;28;20522;-82
2022/04/22 08:26:15;;;;;;;6.30;4.83;;;26.80;57.80;;;;;;5032372;28;20480;-81
2022/04/22 08:28:44;;;;;;;8.87;5.33;;;27.10;57.20;;;;;;5045307;28;20443;-82
2022/04/22 08:31:14;;;;;;;9.27;5.53;;;27.10;57.80;;;;;;5039484;28;20455;-81
2022/04/22 08:33:43;;;;;;;12.23;5.20;;;27.20;56.50;;;;;;5035656;28;20519;-82
2022/04/22 08:36:10;;;;;;;6.67;4.67;;;26.90;56.70;;;;;;5039361;28;20486;-80
2022/04/22 08:38:37;;;;;;;9.13;5.30;;;27.50;55.80;;;;;;5047722;28;20473;-82
2022/04/22 08:41:05;;;;;;;7.47;4.63;;;27.30;56.10;;;;;;5040905;28;20451;-81
2022/04/22 08:43:33;;;;;;;5.13;4.63;;;27.80;55.40;;;;;;5039474;28;20794;-81
2022/04/22 08:46:02;;;;;;;8.23;4.63;;;27.80;54.40;;;;;;5049638;28;20479;-80
2022/04/22 08:51:16;;;;;;;7.83;4.60;;;28.10;53.30;;;;;;5050062;28;20449;-81
2022/04/22 08:53:47;;;;;;;6.80;4.23;;;27.90;54.00;;;;;;5039836;28;20470;-82
2022/04/22 08:56:15;;;;;;;6.50;5.40;;;28.20;54.70;;;;;;5047842;28;20470;-82
2022/04/22 08:58:42;;;;;;;4.33;3.93;;;28.70;52.50;;;;;;5049820;28;20446;-80
2022/04/22 09:01:12;;;;;;;7.17;5.53;;;27.90;52.70;;;;;;5041913;28;20452;-81
2022/04/22 09:03:39;;;;;;;5.20;4.70;;;28.00;52.40;;;;;;5042863;28;20471;-80
2022/04/22 09:06:06;;;;;;;7.80;4.73;;;27.20;53.30;;;;;;5055838;28;20773;-81
2022/04/22 09:08:33;;;;;;;8.73;4.80;;;27.30;54.00;;;;;;5042027;28;20471;-80
2022/04/22 09:11:04;;;;;;;5.23;4.40;;;27.50;53.50;;;;;;5057296;28;20426;-80
2022/04/22 09:13:31;;;;;;;8.40;4.40;;;26.50;53.60;;;;;;5060196;28;20435;-80
2022/04/22 09:15:59;;;;;;;5.50;4.33;;;26.10;54.80;;;;;;5060033;28;20489;-79
2022/04/22 09:18:27;;;;;;;6.57;4.90;;;26.00;55.50;;;;;;5060039;28;20477;-79
2022/04/22 09:21:01;;;;;;;6.63;4.53;;;26.00;55.30;;;;;;5059588;28;20473;-79
2022/04/22 09:23:33;;;;;;;5.83;5.07;;;26.20;55.10;;;;;;5051370;28;20438;-80
2022/04/22 09:26:00;;;;;;;4.90;4.40;;;26.00;55.30;;;;;;5046805;28;20502;-79
2022/04/22 09:28:27;;;;;;;6.10;4.30;;;25.90;56.00;;;;;;5051846;28;20523;-79
2022/04/22 09:30:59;;;;;;;6.50;4.47;;;25.30;56.30;;;;;;5044751;28;20506;-80
2022/04/22 09:33:35;;;;;;;7.33;4.50;;;24.80;56.40;;;;;;5049762;28;20508;-81
2022/04/22 09:44:24;;;;;;;5.50;4.37;;;24.90;57.30;;;;;;5042766;28;20978;-81
2022/04/22 09:47:10;;;;;;;6.93;4.20;;;24.70;58.10;;;;;;5040463;28;20470;-82
2022/04/22 09:49:43;;;;;;;11.70;5.10;;;25.00;57.50;;;;;;5045007;28;20510;-82
2022/04/22 09:52:10;;;;;;;5.77;4.23;;;25.20;57.10;;;;;;5048164;28;20469;-82
2022/04/22 09:54:39;;;;;;;7.60;4.90;;;24.60;57.10;;;;;;5047134;28;20490;-81
2022/04/22 09:57:06;;;;;;;7.10;4.53;;;23.80;58.10;;;;;;5046707;28;20507;-81
2022/04/22 09:59:35;;;;;;;6.30;4.17;;;23.20;59.60;;;;;;5032694;28;20447;-82
2022/04/22 10:02:02;;;;;;;10.40;4.73;;;23.50;60.70;;;;;;5049605;28;20465;-79
2022/04/22 10:04:29;;;;;;;9.43;5.23;;;24.00;59.80;;;;;;5037612;28;20472;-80
2022/04/22 10:07:00;;;;;;;6.47;4.70;;;24.40;59.90;;;;;;5030954;28;20489;-83
2022/04/22 10:09:29;;;;;;;7.80;4.63;;;24.10;58.60;;;;;;5040857;28;20456;-82
2022/04/22 10:11:59;;;;;;;7.00;4.40;;;24.00;59.10;;;;;;5044678;28;20459;-81
2022/04/22 10:14:36;;;;;;;5.60;4.00;;;23.30;59.00;;;;;;5035617;28;20506;-82
2022/04/22 10:17:04;;;;;;;5.37;4.63;;;23.70;59.20;;;;;;5046054;28;20442;-83
2022/04/22 10:19:34;;;;;;;6.73;4.37;;;23.60;59.00;;;;;;5039647;28;20443;-79
2022/04/22 10:22:04;;;;;;;8.17;3.73;;;23.40;59.70;;;;;;5040614;28;20440;-81
2022/04/22 10:24:32;;;;;;;13.60;4.77;;;23.40;59.80;;;;;;5040869;28;20512;-81
2022/04/22 10:27:01;;;;;;;7.33;4.50;;;23.50;60.00;;;;;;5050620;28;20495;-82
2022/04/22 10:29:30;;;;;;;5.83;4.70;;;23.50;60.60;;;;;;5047937;28;20443;-80
2022/04/22 10:31:57;;;;;;;4.80;3.90;;;23.60;60.60;;;;;;5038807;28;20523;-82
2022/04/22 10:34:39;;;;;;;7.63;4.20;;;23.60;60.70;;;;;;5039487;28;20523;-83
2022/04/22 10:37:17;;;;;;;6.97;5.10;;;23.10;61.40;;;;;;5042013;28;20450;-82
2022/04/22 10:39:48;;;;;;;7.03;4.57;;;22.00;63.20;;;;;;5040841;28;20474;-82
2022/04/22 10:42:16;;;;;;;7.13;4.03;;;21.80;64.80;;;;;;5036511;28;20534;-81
2022/04/22 10:47:44;;;;;;;5.73;4.40;;;21.80;65.00;;;;;;5043774;28;20480;-81
2022/04/22 10:50:28;;;;;;;5.50;4.07;;;21.40;65.60;;;;;;5044194;28;20445;-81
2022/04/22 10:53:05;;;;;;;8.60;4.60;;;20.80;67.60;;;;;;5047144;28;20508;-82
2022/04/22 10:55:34;;;;;;;6.83;4.40;;;20.10;68.40;;;;;;5040220;28;20454;-81
2022/04/22 10:58:23;;;;;;;5.40;4.80;;;19.60;70.00;;;;;;5045960;28;20446;-79
2022/04/22 11:00:57;;;;;;;9.07;5.30;;;19.40;72.30;;;;;;5038057;28;20464;-80
2022/04/22 11:03:25;;;;;;;5.83;4.40;;;19.40;72.00;;;;;;5041966;28;20448;-80
2022/04/22 11:05:59;;;;;;;8.00;5.23;;;19.50;73.10;;;;;;5051399;28;20531;-82
2022/04/22 11:08:32;;;;;;;13.83;4.43;;;19.80;73.30;;;;;;5043107;28;20512;-82
2022/04/22 11:11:15;;;;;;;5.47;4.17;;;19.80;72.00;;;;;;5040112;28;20450;-81
2022/04/22 11:13:47;;;;;;;7.77;4.13;;;20.20;72.30;;;;;;5050603;28;20439;-81
2022/04/22 11:16:15;;;;;;;7.20;4.00;;;20.00;70.00;;;;;;5043014;28;20523;-81
2022/04/22 11:18:43;;;;;;;6.13;4.90;;;20.00;70.30;;;;;;5037200;28;20524;-80
2022/04/22 11:21:16;;;;;;;9.13;5.30;;;19.80;70.90;;;;;;5044620;28;20492;-82
2022/04/22 11:23:45;;;;;;;8.73;4.63;;;19.80;71.50;;;;;;5049709;28;20439;-82
2022/04/22 11:26:17;;;;;;;12.00;5.37;;;19.70;71.90;;;;;;5044084;28;20454;-82
2022/04/22 11:28:45;;;;;;;5.80;4.03;;;19.50;71.60;;;;;;5039749;28;20613;-80
2022/04/22 11:31:13;;;;;;;9.30;4.60;;;19.60;72.00;;;;;;5050412;28;20455;-80
2022/04/22 11:34:05;;;;;;;8.10;4.17;;;19.50;72.40;;;;;;5053088;28;20506;-80
2022/04/22 11:36:42;;;;;;;12.03;5.70;;;19.40;73.00;;;;;;5042166;28;20534;-81
2022/04/22 11:39:15;;;;;;;6.77;5.23;;;19.20;73.40;;;;;;5053752;28;20477;-81
2022/04/22 11:41:53;;;;;;;4.93;3.63;;;18.80;74.70;;;;;;5045027;28;20440;-81
2022/04/22 11:44:21;;;;;;;8.87;4.70;;;18.80;75.60;;;;;;5044443;28;20554;-80
2022/04/22 11:46:48;;;;;;;8.17;5.23;;;19.10;75.50;;;;;;5041126;28;20483;-80
2022/04/22 11:49:15;;;;;;;5.57;4.47;;;19.00;75.30;;;;;;5054837;28;20455;-78
2022/04/22 11:51:41;;;;;;;5.40;3.97;;;19.00;74.70;;;;;;5046723;28;20441;-80
2022/04/22 11:54:10;;;;;;;7.50;4.53;;;19.30;74.60;;;;;;5055807;28;20547;-78
2022/04/22 11:56:37;;;;;;;5.70;4.50;;;19.40;73.90;;;;;;5050592;28;20477;-79
2022/04/22 11:59:04;;;;;;;12.03;5.90;;;19.40;74.50;;;;;;5051001;28;20487;-79
2022/04/22 12:08:00;;;;;;;6.33;4.27;;;19.90;71.00;;;;;;5046171;28;20479;-80
2022/04/22 12:09:52;;;;;;;7.23;5.10;;;19.70;70.80;;;;;;5049171;28;20429;-80
2022/04/22 12:12:22;;;;;;;6.57;4.10;;;19.40;70.80;;;;;;5046817;28;20447;-79
2022/04/22 12:15:00;;;;;;;6.77;4.07;;;19.00;71.10;;;;;;5051101;28;20505;-79
2022/04/22 12:17:26;;;;;;;5.53;4.10;;;18.80;72.20;;;;;;5055040;28;20426;-78
2022/04/22 12:19:53;;;;;;;5.27;4.07;;;18.80;72.30;;;;;;5036709;28;20467;-79
2022/04/22 12:22:20;;;;;;;5.90;4.00;;;18.80;71.50;;;;;;5048653;28;20436;-79
2022/04/22 12:25:13;;;;;;;6.73;3.80;;;19.20;71.80;;;;;;5056229;28;20496;-79
2022/04/22 12:27:42;;;;;;;5.97;3.70;;;19.50;70.50;;;;;;5042691;28;20491;-80
2022/04/22 12:30:11;;;;;;;5.70;4.00;;;19.80;71.00;;;;;;5045408;28;20447;-79
2022/04/22 12:32:38;;;;;;;7.33;3.77;;;20.00;70.00;;;;;;5045385;28;20503;-79
2022/04/22 12:35:13;;;;;;;7.23;4.37;;;20.20;69.60;;;;;;5047397;28;20455;-79
2022/04/22 12:37:44;;;;;;;7.30;4.33;;;20.10;69.60;;;;;;5049183;28;20491;-79
2022/04/22 12:40:15;;;;;;;4.93;4.30;;;20.20;69.80;;;;;;5047521;28;20456;-81
2022/04/22 12:42:42;;;;;;;5.37;4.17;;;20.00;70.50;;;;;;5043498;28;20455;-80
2022/04/22 12:53:38;;;;;;;8.00;4.87;;;19.20;73.70;;;;;;5049383;28;20469;-80
2022/04/22 12:56:08;;;;;;;8.03;5.10;;;19.00;75.10;;;;;;5050127;28;20446;-82
2022/04/22 12:58:50;;;;;;;9.00;4.50;;;18.90;75.20;;;;;;5049057;28;20483;-79
2022/04/22 13:01:19;;;;;;;6.60;4.57;;;18.70;75.90;;;;;;5045568;28;20426;-82
2022/04/22 13:03:46;;;;;;;7.00;4.37;;;18.50;76.80;;;;;;5057272;28;20450;-79
2022/04/22 13:06:14;;;;;;;5.53;3.60;;;18.50;76.60;;;;;;5047521;28;20440;-79
2022/04/22 13:08:41;;;;;;;4.87;3.27;;;18.60;76.00;;;;;;5045521;28;20494;-82
2022/04/22 13:11:09;;;;;;;9.93;4.03;;;18.80;75.60;;;;;;5052281;28;20474;-81
2022/04/22 13:13:36;;;;;;;5.37;4.77;;;19.00;75.60;;;;;;5054216;28;20439;-82
2022/04/22 13:16:03;;;;;;;8.77;3.53;;;19.30;75.10;;;;;;5052294;28;20498;-79
2022/04/22 13:18:30;;;;;;;4.80;2.97;;;19.40;74.60;;;;;;5037539;28;20573;-81
2022/04/22 13:20:57;;;;;;;6.70;3.27;;;19.40;73.80;;;;;;5049991;28;20443;-80
2022/04/22 13:23:24;;;;;;;4.20;3.23;;;19.50;74.30;;;;;;5048852;28;20490;-81
2022/04/22 13:25:51;;;;;;;8.00;2.67;;;19.60;73.80;;;;;;5045422;28;20905;-79
2022/04/22 13:28:19;;;;;;;3.93;2.80;;;19.70;72.10;;;;;;5048877;28;20543;-83
2022/04/22 13:30:46;;;;;;;3.77;3.00;;;19.70;71.80;;;;;;5053651;28;20458;-78
2022/04/22 13:33:13;;;;;;;7.50;3.40;;;19.70;71.70;;;;;;5041590;28;20456;-81
2022/04/22 13:35:40;;;;;;;16.60;3.13;;;19.60;71.30;;;;;;5050289;28;20495;-82
2022/04/22 13:38:07;;;;;;;6.27;3.10;;;19.20;71.70;;;;;;5045124;28;20443;-82
2022/04/22 13:40:34;;;;;;;3.20;2.90;;;19.00;72.70;;;;;;5053849;28;20447;-81
2022/04/22 13:43:01;;;;;;;3.70;2.80;;;18.90;73.20;;;;;;5047120;28;20495;-81
2022/04/22 13:53:51;;;;;;;3.70;2.10;;;19.30;73.60;;;;;;5052915;28;20497;-81
2022/04/22 13:56:18;;;;;;;4.30;2.80;;;19.30;73.20;;;;;;5039441;28;20439;-81
2022/04/22 13:58:45;;;;;;;8.13;2.90;;;19.30;73.70;;;;;;5048669;28;20475;-81
2022/04/22 14:01:13;;;;;;;3.00;2.40;;;19.00;73.50;;;;;;5037869;28;20454;-83
2022/04/22 14:03:40;;;;;;;11.53;2.40;;;18.90;73.00;;;;;;5039002;28;20448;-80
2022/04/22 14:06:07;;;;;;;4.50;1.70;;;19.00;72.20;;;;;;5050995;28;20446;-81
2022/04/22 14:08:35;;;;;;;3.47;2.17;;;18.90;71.00;;;;;;5052883;28;20483;-83
2022/04/22 14:11:02;;;;;;;3.40;2.37;;;18.90;71.10;;;;;;5040783;28;20483;-81
2022/04/22 14:13:31;;;;;;;5.87;2.50;;;19.00;70.90;;;;;;5038403;28;20448;-82
2022/04/22 14:15:58;;;;;;;5.90;2.37;;;19.00;70.10;;;;;;5049601;28;20476;-82
2022/04/22 14:18:30;;;;;;;6.60;2.70;;;19.00;70.10;;;;;;5041192;28;20433;-80
2022/04/22 14:20:57;;;;;;;5.93;2.37;;;19.20;69.70;;;;;;5039484;28;20443;-82
2022/04/22 14:23:24;;;;;;;2.20;1.97;;;19.20;69.50;;;;;;5035102;28;20564;-82